sensor_id;sensor_type;location;lat;lon;timestamp;P1;durP1;ratioP1;P2;durP2;ratioP2
8488;SDS011;4281;45.772;12.852;2022-07-01T00:02:20;10.30;;;6.90;;
8488;SDS011;4281;45.772;12.852;2022-07-01T00:04:49;13.03;;;6.80;;
8488;SDS011;4281;45.772;12.852;2022-07-01T00:07:17;9.40;;;6.07;;
8488;SDS011;4281;45.772;12.852;2022-07-01T00:09:46;8.40;;;6.00;;
8488;SDS011;4281;45.772;12.852;2022-07-01T00:12:14;12.30;;;7.53;;
8488;SDS011;4281;45.772;12.852;2022-07-01T00:14:43;9.17;;;6.17;;
8488;SDS011;4281;45.772;12.852;2022-07-01T00:17:12;9.30;;;6.47;;
8488;SDS011;4281;45.772;12.852;2022-07-01T00:19:41;10.40;;;6.37;;
8488;SDS011;4281;45.772;12.852;2022-07-01T00:22:10;7.80;;;5.13;;
8488;SDS011;4281;45.772;12.852;2022-07-01T00:24:38;8.27;;;6.53;;
8488;SDS011;4281;45.772;12.852;2022-07-01T00:27:06;11.87;;;7.00;;
8488;SDS011;4281;45.772;12.852;2022-07-01T00:29:35;10.37;;;7.20;;
8488;SDS011;4281;45.772;12.852;2022-07-01T00:32:04;7.13;;;6.23;;
8488;SDS011;4281;45.772;12.852;2022-07-01T00:34:34;9.53;;;6.27;;
8488;SDS011;4281;45.772;12.852;2022-07-01T00:37:02;12.27;;;7.40;;
8488;SDS011;4281;45.772;12.852;2022-07-01T00:39:31;11.63;;;6.63;;
8488;SDS011;4281;45.772;12.852;2022-07-01T00:42:01;12.97;;;6.30;;
8488;SDS011;4281;45.772;12.852;2022-07-01T00:44:30;8.60;;;6.97;;
8488;SDS011;4281;45.772;12.852;2022-07-01T00:47:00;12.10;;;6.97;;
8488;SDS011;4281;45.772;12.852;2022-07-01T00:49:30;9.73;;;6.93;;
8488;SDS011;4281;45.772;12.852;2022-07-01T00:52:01;12.00;;;9.70;;
8488;SDS011;4281;45.772;12.852;2022-07-01T00:54:30;16.00;;;14.20;;
8488;SDS011;4281;45.772;12.852;2022-07-01T00:57:03;18.80;;;15.03;;
8488;SDS011;4281;45.772;12.852;2022-07-01T00:59:33;15.07;;;13.47;;
8488;SDS011;4281;45.772;12.852;2022-07-01T01:02:03;19.20;;;17.17;;
8488;SDS011;4281;45.772;12.852;2022-07-01T01:04:32;19.13;;;17.00;;
8488;SDS011;4281;45.772;12.852;2022-07-01T01:07:03;19.20;;;17.20;;
8488;SDS011;4281;45.772;12.852;2022-07-01T01:09:31;20.80;;;18.80;;
8488;SDS011;4281;45.772;12.852;2022-07-01T01:12:01;20.50;;;18.03;;
8488;SDS011;4281;45.772;12.852;2022-07-01T01:14:30;20.13;;;17.77;;
8488;SDS011;4281;45.772;12.852;2022-07-01T01:17:11;17.73;;;14.93;;
8488;SDS011;4281;45.772;12.852;2022-07-01T01:19:39;20.60;;;18.20;;
8488;SDS011;4281;45.772;12.852;2022-07-01T01:22:10;21.80;;;19.60;;
8488;SDS011;4281;45.772;12.852;2022-07-01T01:24:42;19.70;;;17.70;;
8488;SDS011;4281;45.772;12.852;2022-07-01T01:27:11;20.07;;;18.00;;
8488;SDS011;4281;45.772;12.852;2022-07-01T01:29:40;18.77;;;16.77;;
8488;SDS011;4281;45.772;12.852;2022-07-01T01:32:08;19.93;;;17.83;;
8488;SDS011;4281;45.772;12.852;2022-07-01T01:34:37;20.27;;;18.23;;
8488;SDS011;4281;45.772;12.852;2022-07-01T01:37:08;20.97;;;18.67;;
8488;SDS011;4281;45.772;12.852;2022-07-01T01:39:37;22.80;;;19.43;;
8488;SDS011;4281;45.772;12.852;2022-07-01T01:42:06;23.40;;;20.90;;
8488;SDS011;4281;45.772;12.852;2022-07-01T01:44:35;22.63;;;20.43;;
8488;SDS011;4281;45.772;12.852;2022-07-01T01:47:04;20.03;;;18.10;;
8488;SDS011;4281;45.772;12.852;2022-07-01T01:49:33;21.93;;;19.77;;
8488;SDS011;4281;45.772;12.852;2022-07-01T01:52:01;22.60;;;19.33;;
8488;SDS011;4281;45.772;12.852;2022-07-01T01:54:32;20.83;;;18.87;;
8488;SDS011;4281;45.772;12.852;2022-07-01T01:57:03;21.33;;;18.33;;
8488;SDS011;4281;45.772;12.852;2022-07-01T01:59:32;21.13;;;18.90;;
8488;SDS011;4281;45.772;12.852;2022-07-01T02:02:00;20.93;;;18.73;;
8488;SDS011;4281;45.772;12.852;2022-07-01T02:04:29;21.17;;;19.13;;
8488;SDS011;4281;45.772;12.852;2022-07-01T02:06:57;22.03;;;19.73;;
8488;SDS011;4281;45.772;12.852;2022-07-01T02:09:26;22.30;;;19.17;;
8488;SDS011;4281;45.772;12.852;2022-07-01T02:11:57;19.07;;;17.27;;
8488;SDS011;4281;45.772;12.852;2022-07-01T02:14:25;20.93;;;18.73;;
8488;SDS011;4281;45.772;12.852;2022-07-01T02:16:55;20.07;;;17.17;;
8488;SDS011;4281;45.772;12.852;2022-07-01T02:19:23;19.00;;;16.20;;
8488;SDS011;4281;45.772;12.852;2022-07-01T02:21:51;17.57;;;15.73;;
8488;SDS011;4281;45.772;12.852;2022-07-01T02:24:20;19.27;;;15.97;;
8488;SDS011;4281;45.772;12.852;2022-07-01T02:26:49;19.23;;;17.13;;
8488;SDS011;4281;45.772;12.852;2022-07-01T02:29:18;19.27;;;16.30;;
8488;SDS011;4281;45.772;12.852;2022-07-01T02:31:47;18.67;;;15.30;;
8488;SDS011;4281;45.772;12.852;2022-07-01T02:34:15;16.80;;;15.10;;
8488;SDS011;4281;45.772;12.852;2022-07-01T02:36:44;17.30;;;15.47;;
8488;SDS011;4281;45.772;12.852;2022-07-01T02:39:12;19.83;;;15.67;;
8488;SDS011;4281;45.772;12.852;2022-07-01T02:41:41;17.83;;;13.17;;
8488;SDS011;4281;45.772;12.852;2022-07-01T02:44:39;15.87;;;14.37;;
8488;SDS011;4281;45.772;12.852;2022-07-01T02:47:08;15.87;;;14.23;;
8488;SDS011;4281;45.772;12.852;2022-07-01T02:49:36;15.60;;;14.00;;
8488;SDS011;4281;45.772;12.852;2022-07-01T02:52:05;16.87;;;14.77;;
8488;SDS011;4281;45.772;12.852;2022-07-01T02:54:35;16.70;;;13.17;;
8488;SDS011;4281;45.772;12.852;2022-07-01T02:57:05;16.77;;;13.30;;
8488;SDS011;4281;45.772;12.852;2022-07-01T02:59:33;18.03;;;14.17;;
8488;SDS011;4281;45.772;12.852;2022-07-01T03:02:06;15.07;;;13.43;;
8488;SDS011;4281;45.772;12.852;2022-07-01T03:04:34;15.93;;;13.77;;
8488;SDS011;4281;45.772;12.852;2022-07-01T03:07:03;12.37;;;10.70;;
8488;SDS011;4281;45.772;12.852;2022-07-01T03:09:32;14.40;;;11.63;;
8488;SDS011;4281;45.772;12.852;2022-07-01T03:12:00;14.13;;;12.20;;
8488;SDS011;4281;45.772;12.852;2022-07-01T03:14:50;13.43;;;11.33;;
8488;SDS011;4281;45.772;12.852;2022-07-01T03:17:20;13.17;;;11.23;;
8488;SDS011;4281;45.772;12.852;2022-07-01T03:19:49;11.53;;;10.40;;
8488;SDS011;4281;45.772;12.852;2022-07-01T03:22:19;13.63;;;12.23;;
8488;SDS011;4281;45.772;12.852;2022-07-01T03:24:49;14.90;;;13.07;;
8488;SDS011;4281;45.772;12.852;2022-07-01T03:27:18;15.07;;;12.10;;
8488;SDS011;4281;45.772;12.852;2022-07-01T03:29:47;15.87;;;12.13;;
8488;SDS011;4281;45.772;12.852;2022-07-01T03:32:16;14.60;;;11.33;;
8488;SDS011;4281;45.772;12.852;2022-07-01T03:34:48;13.57;;;11.30;;
8488;SDS011;4281;45.772;12.852;2022-07-01T03:37:18;13.53;;;12.17;;
8488;SDS011;4281;45.772;12.852;2022-07-01T03:39:49;15.87;;;12.37;;
8488;SDS011;4281;45.772;12.852;2022-07-01T03:42:19;15.50;;;12.67;;
8488;SDS011;4281;45.772;12.852;2022-07-01T03:44:48;14.40;;;12.17;;
8488;SDS011;4281;45.772;12.852;2022-07-01T03:47:16;13.90;;;11.17;;
8488;SDS011;4281;45.772;12.852;2022-07-01T03:49:46;14.53;;;11.50;;
8488;SDS011;4281;45.772;12.852;2022-07-01T03:52:14;14.00;;;11.77;;
8488;SDS011;4281;45.772;12.852;2022-07-01T03:54:43;15.40;;;11.63;;
8488;SDS011;4281;45.772;12.852;2022-07-01T03:57:10;14.07;;;11.83;;
8488;SDS011;4281;45.772;12.852;2022-07-01T03:59:39;12.40;;;11.07;;
8488;SDS011;4281;45.772;12.852;2022-07-01T04:02:08;16.73;;;11.47;;
8488;SDS011;4281;45.772;12.852;2022-07-01T04:04:36;12.90;;;10.40;;
8488;SDS011;4281;45.772;12.852;2022-07-01T04:07:06;16.83;;;11.40;;
8488;SDS011;4281;45.772;12.852;2022-07-01T04:09:35;15.40;;;10.93;;
8488;SDS011;4281;45.772;12.852;2022-07-01T04:12:04;11.93;;;10.53;;
8488;SDS011;4281;45.772;12.852;2022-07-01T04:14:34;17.87;;;11.63;;
8488;SDS011;4281;45.772;12.852;2022-07-01T04:17:04;11.37;;;9.80;;
8488;SDS011;4281;45.772;12.852;2022-07-01T04:19:33;13.70;;;10.13;;
8488;SDS011;4281;45.772;12.852;2022-07-01T04:22:02;10.77;;;8.57;;
8488;SDS011;4281;45.772;12.852;2022-07-01T04:24:50;12.97;;;9.17;;
8488;SDS011;4281;45.772;12.852;2022-07-01T04:27:18;11.60;;;8.17;;
8488;SDS011;4281;45.772;12.852;2022-07-01T04:29:47;12.10;;;7.53;;
8488;SDS011;4281;45.772;12.852;2022-07-01T04:32:16;12.70;;;7.97;;
8488;SDS011;4281;45.772;12.852;2022-07-01T04:34:44;9.87;;;7.37;;
8488;SDS011;4281;45.772;12.852;2022-07-01T04:37:13;11.53;;;7.10;;
8488;SDS011;4281;45.772;12.852;2022-07-01T04:39:41;13.67;;;7.43;;
8488;SDS011;4281;45.772;12.852;2022-07-01T04:42:11;11.30;;;7.43;;
8488;SDS011;4281;45.772;12.852;2022-07-01T04:44:41;12.13;;;7.70;;
8488;SDS011;4281;45.772;12.852;2022-07-01T04:47:10;12.53;;;7.10;;
8488;SDS011;4281;45.772;12.852;2022-07-01T04:49:38;9.40;;;7.20;;
8488;SDS011;4281;45.772;12.852;2022-07-01T04:52:06;11.53;;;6.73;;
8488;SDS011;4281;45.772;12.852;2022-07-01T04:54:37;11.70;;;7.50;;
8488;SDS011;4281;45.772;12.852;2022-07-01T04:57:18;11.20;;;7.03;;
8488;SDS011;4281;45.772;12.852;2022-07-01T05:00:19;11.50;;;7.10;;
8488;SDS011;4281;45.772;12.852;2022-07-01T05:03:20;11.43;;;7.23;;
8488;SDS011;4281;45.772;12.852;2022-07-01T05:06:21;10.37;;;7.00;;
8488;SDS011;4281;45.772;12.852;2022-07-01T05:09:16;11.97;;;7.07;;
8488;SDS011;4281;45.772;12.852;2022-07-01T05:11:53;8.53;;;5.97;;
8488;SDS011;4281;45.772;12.852;2022-07-01T05:14:23;12.83;;;6.40;;
8488;SDS011;4281;45.772;12.852;2022-07-01T05:16:53;10.47;;;6.77;;
8488;SDS011;4281;45.772;12.852;2022-07-01T05:19:21;11.40;;;6.73;;
8488;SDS011;4281;45.772;12.852;2022-07-01T05:22:07;8.10;;;5.80;;
8488;SDS011;4281;45.772;12.852;2022-07-01T05:24:36;11.70;;;6.20;;
8488;SDS011;4281;45.772;12.852;2022-07-01T05:27:06;11.40;;;6.20;;
8488;SDS011;4281;45.772;12.852;2022-07-01T05:29:36;9.97;;;6.00;;
8488;SDS011;4281;45.772;12.852;2022-07-01T05:32:05;7.60;;;5.50;;
8488;SDS011;4281;45.772;12.852;2022-07-01T05:34:33;7.77;;;5.33;;
8488;SDS011;4281;45.772;12.852;2022-07-01T05:37:04;8.50;;;5.50;;
8488;SDS011;4281;45.772;12.852;2022-07-01T05:39:33;12.63;;;5.80;;
8488;SDS011;4281;45.772;12.852;2022-07-01T05:42:09;10.63;;;6.03;;
8488;SDS011;4281;45.772;12.852;2022-07-01T05:44:38;9.33;;;6.33;;
8488;SDS011;4281;45.772;12.852;2022-07-01T05:47:07;6.73;;;5.43;;
8488;SDS011;4281;45.772;12.852;2022-07-01T05:49:36;6.13;;;4.87;;
8488;SDS011;4281;45.772;12.852;2022-07-01T05:52:04;8.60;;;5.30;;
8488;SDS011;4281;45.772;12.852;2022-07-01T05:54:33;7.83;;;5.40;;
8488;SDS011;4281;45.772;12.852;2022-07-01T05:57:02;7.80;;;5.23;;
8488;SDS011;4281;45.772;12.852;2022-07-01T05:59:34;9.40;;;5.73;;
8488;SDS011;4281;45.772;12.852;2022-07-01T06:02:04;7.57;;;5.27;;
8488;SDS011;4281;45.772;12.852;2022-07-01T06:04:33;7.30;;;5.10;;
8488;SDS011;4281;45.772;12.852;2022-07-01T06:07:02;8.97;;;5.27;;
8488;SDS011;4281;45.772;12.852;2022-07-01T06:09:31;7.47;;;5.10;;
8488;SDS011;4281;45.772;12.852;2022-07-01T06:12:00;6.53;;;4.43;;
8488;SDS011;4281;45.772;12.852;2022-07-01T06:14:28;12.03;;;5.77;;
8488;SDS011;4281;45.772;12.852;2022-07-01T06:16:56;9.67;;;4.97;;
8488;SDS011;4281;45.772;12.852;2022-07-01T06:19:26;9.17;;;4.50;;
8488;SDS011;4281;45.772;12.852;2022-07-01T06:21:55;9.70;;;5.10;;
8488;SDS011;4281;45.772;12.852;2022-07-01T06:24:24;9.53;;;4.97;;
8488;SDS011;4281;45.772;12.852;2022-07-01T06:26:52;10.43;;;4.60;;
8488;SDS011;4281;45.772;12.852;2022-07-01T06:29:20;8.90;;;4.47;;
8488;SDS011;4281;45.772;12.852;2022-07-01T06:31:49;7.73;;;4.50;;
8488;SDS011;4281;45.772;12.852;2022-07-01T06:34:17;8.97;;;4.53;;
8488;SDS011;4281;45.772;12.852;2022-07-01T06:36:48;6.17;;;4.73;;
8488;SDS011;4281;45.772;12.852;2022-07-01T06:39:16;9.03;;;4.93;;
8488;SDS011;4281;45.772;12.852;2022-07-01T06:41:45;8.87;;;4.73;;
8488;SDS011;4281;45.772;12.852;2022-07-01T06:44:13;10.13;;;4.53;;
8488;SDS011;4281;45.772;12.852;2022-07-01T06:46:42;7.47;;;4.50;;
8488;SDS011;4281;45.772;12.852;2022-07-01T06:49:10;7.27;;;4.30;;
8488;SDS011;4281;45.772;12.852;2022-07-01T06:51:39;8.20;;;5.27;;
8488;SDS011;4281;45.772;12.852;2022-07-01T06:54:09;8.07;;;5.20;;
8488;SDS011;4281;45.772;12.852;2022-07-01T06:56:37;9.17;;;5.50;;
8488;SDS011;4281;45.772;12.852;2022-07-01T06:59:06;9.40;;;4.77;;
8488;SDS011;4281;45.772;12.852;2022-07-01T07:01:35;9.17;;;4.63;;
8488;SDS011;4281;45.772;12.852;2022-07-01T07:04:03;8.10;;;4.50;;
8488;SDS011;4281;45.772;12.852;2022-07-01T07:06:32;7.93;;;4.70;;
8488;SDS011;4281;45.772;12.852;2022-07-01T07:09:01;9.17;;;4.73;;
8488;SDS011;4281;45.772;12.852;2022-07-01T07:11:31;9.00;;;4.37;;
8488;SDS011;4281;45.772;12.852;2022-07-01T07:13:59;9.23;;;4.57;;
8488;SDS011;4281;45.772;12.852;2022-07-01T07:16:27;7.47;;;4.40;;
8488;SDS011;4281;45.772;12.852;2022-07-01T07:18:56;9.80;;;4.40;;
8488;SDS011;4281;45.772;12.852;2022-07-01T07:21:24;8.40;;;4.23;;
8488;SDS011;4281;45.772;12.852;2022-07-01T07:23:53;7.23;;;3.80;;
8488;SDS011;4281;45.772;12.852;2022-07-01T07:26:21;6.37;;;3.60;;
8488;SDS011;4281;45.772;12.852;2022-07-01T07:28:51;6.60;;;3.17;;
8488;SDS011;4281;45.772;12.852;2022-07-01T07:31:20;8.63;;;3.77;;
8488;SDS011;4281;45.772;12.852;2022-07-01T07:33:48;7.60;;;3.23;;
8488;SDS011;4281;45.772;12.852;2022-07-01T07:36:16;8.73;;;3.77;;
8488;SDS011;4281;45.772;12.852;2022-07-01T07:38:45;11.47;;;3.50;;
8488;SDS011;4281;45.772;12.852;2022-07-01T07:41:13;6.60;;;3.13;;
8488;SDS011;4281;45.772;12.852;2022-07-01T07:43:42;8.27;;;3.23;;
8488;SDS011;4281;45.772;12.852;2022-07-01T07:46:12;6.37;;;3.10;;
8488;SDS011;4281;45.772;12.852;2022-07-01T07:48:41;7.17;;;3.03;;
8488;SDS011;4281;45.772;12.852;2022-07-01T07:51:09;5.77;;;2.80;;
8488;SDS011;4281;45.772;12.852;2022-07-01T07:53:51;5.23;;;3.07;;
8488;SDS011;4281;45.772;12.852;2022-07-01T07:56:19;4.63;;;2.90;;
8488;SDS011;4281;45.772;12.852;2022-07-01T07:58:48;6.77;;;3.43;;
8488;SDS011;4281;45.772;12.852;2022-07-01T08:01:17;6.67;;;3.10;;
8488;SDS011;4281;45.772;12.852;2022-07-01T08:03:46;7.30;;;3.00;;
8488;SDS011;4281;45.772;12.852;2022-07-01T08:06:14;6.83;;;2.70;;
8488;SDS011;4281;45.772;12.852;2022-07-01T08:08:43;6.73;;;3.00;;
8488;SDS011;4281;45.772;12.852;2022-07-01T08:11:11;5.67;;;2.40;;
8488;SDS011;4281;45.772;12.852;2022-07-01T08:13:40;8.00;;;2.90;;
8488;SDS011;4281;45.772;12.852;2022-07-01T08:16:09;5.20;;;3.10;;
8488;SDS011;4281;45.772;12.852;2022-07-01T08:18:39;7.37;;;2.90;;
8488;SDS011;4281;45.772;12.852;2022-07-01T08:21:07;7.10;;;2.70;;
8488;SDS011;4281;45.772;12.852;2022-07-01T08:23:35;6.57;;;2.80;;
8488;SDS011;4281;45.772;12.852;2022-07-01T08:26:04;4.93;;;2.90;;
8488;SDS011;4281;45.772;12.852;2022-07-01T08:28:32;6.13;;;2.90;;
8488;SDS011;4281;45.772;12.852;2022-07-01T08:31:01;8.20;;;3.10;;
8488;SDS011;4281;45.772;12.852;2022-07-01T08:33:29;6.07;;;2.87;;
8488;SDS011;4281;45.772;12.852;2022-07-01T08:35:59;4.80;;;3.10;;
8488;SDS011;4281;45.772;12.852;2022-07-01T08:38:28;9.50;;;3.00;;
8488;SDS011;4281;45.772;12.852;2022-07-01T08:40:56;5.60;;;3.57;;
8488;SDS011;4281;45.772;12.852;2022-07-01T08:43:24;9.10;;;3.40;;
8488;SDS011;4281;45.772;12.852;2022-07-01T08:45:54;7.10;;;3.30;;
8488;SDS011;4281;45.772;12.852;2022-07-01T08:48:23;9.20;;;3.57;;
8488;SDS011;4281;45.772;12.852;2022-07-01T08:50:51;7.43;;;3.40;;
8488;SDS011;4281;45.772;12.852;2022-07-01T08:53:21;7.97;;;3.20;;
8488;SDS011;4281;45.772;12.852;2022-07-01T08:55:49;7.47;;;2.83;;
8488;SDS011;4281;45.772;12.852;2022-07-01T08:58:35;5.43;;;2.80;;
8488;SDS011;4281;45.772;12.852;2022-07-01T09:01:13;8.27;;;3.00;;
8488;SDS011;4281;45.772;12.852;2022-07-01T09:03:43;6.13;;;3.00;;
8488;SDS011;4281;45.772;12.852;2022-07-01T09:06:13;7.73;;;3.20;;
8488;SDS011;4281;45.772;12.852;2022-07-01T09:08:45;5.97;;;2.87;;
8488;SDS011;4281;45.772;12.852;2022-07-01T09:11:17;8.40;;;2.83;;
8488;SDS011;4281;45.772;12.852;2022-07-01T09:14:04;6.07;;;2.43;;
8488;SDS011;4281;45.772;12.852;2022-07-01T09:16:39;7.47;;;2.93;;
8488;SDS011;4281;45.772;12.852;2022-07-01T09:19:09;5.97;;;2.70;;
8488;SDS011;4281;45.772;12.852;2022-07-01T09:21:38;5.93;;;2.83;;
8488;SDS011;4281;45.772;12.852;2022-07-01T09:26:57;6.33;;;2.67;;
8488;SDS011;4281;45.772;12.852;2022-07-01T09:29:28;7.53;;;2.87;;
8488;SDS011;4281;45.772;12.852;2022-07-01T09:32:00;7.17;;;2.73;;
8488;SDS011;4281;45.772;12.852;2022-07-01T09:34:33;8.60;;;2.73;;
8488;SDS011;4281;45.772;12.852;2022-07-01T09:37:03;9.90;;;3.33;;
8488;SDS011;4281;45.772;12.852;2022-07-01T09:42:28;10.37;;;3.70;;
8488;SDS011;4281;45.772;12.852;2022-07-01T09:44:57;10.53;;;3.60;;
8488;SDS011;4281;45.772;12.852;2022-07-01T09:47:30;10.70;;;3.40;;
8488;SDS011;4281;45.772;12.852;2022-07-01T09:50:00;12.63;;;4.10;;
8488;SDS011;4281;45.772;12.852;2022-07-01T09:52:30;10.70;;;3.60;;
8488;SDS011;4281;45.772;12.852;2022-07-01T09:55:02;9.30;;;3.80;;
8488;SDS011;4281;45.772;12.852;2022-07-01T09:57:33;7.43;;;3.93;;
8488;SDS011;4281;45.772;12.852;2022-07-01T10:00:03;10.83;;;3.73;;
8488;SDS011;4281;45.772;12.852;2022-07-01T10:02:33;8.53;;;3.60;;
8488;SDS011;4281;45.772;12.852;2022-07-01T10:05:02;9.10;;;3.73;;
8488;SDS011;4281;45.772;12.852;2022-07-01T10:07:41;10.77;;;3.70;;
8488;SDS011;4281;45.772;12.852;2022-07-01T10:10:23;11.60;;;4.43;;
8488;SDS011;4281;45.772;12.852;2022-07-01T10:13:03;9.97;;;4.30;;
8488;SDS011;4281;45.772;12.852;2022-07-01T10:15:35;11.07;;;3.77;;
8488;SDS011;4281;45.772;12.852;2022-07-01T10:18:03;10.43;;;4.43;;
8488;SDS011;4281;45.772;12.852;2022-07-01T10:20:32;13.63;;;4.50;;
8488;SDS011;4281;45.772;12.852;2022-07-01T10:23:01;12.93;;;4.63;;
8488;SDS011;4281;45.772;12.852;2022-07-01T10:25:40;11.60;;;4.50;;
8488;SDS011;4281;45.772;12.852;2022-07-01T10:28:19;10.83;;;4.73;;
8488;SDS011;4281;45.772;12.852;2022-07-01T10:30:56;15.30;;;4.70;;
8488;SDS011;4281;45.772;12.852;2022-07-01T10:33:31;10.27;;;4.33;;
8488;SDS011;4281;45.772;12.852;2022-07-01T10:36:03;10.47;;;4.07;;
8488;SDS011;4281;45.772;12.852;2022-07-01T10:38:33;16.13;;;4.77;;
8488;SDS011;4281;45.772;12.852;2022-07-01T10:41:02;15.17;;;4.60;;
8488;SDS011;4281;45.772;12.852;2022-07-01T10:43:40;10.03;;;4.30;;
8488;SDS011;4281;45.772;12.852;2022-07-01T10:49:07;9.80;;;4.17;;
8488;SDS011;4281;45.772;12.852;2022-07-01T10:51:42;13.10;;;5.27;;
8488;SDS011;4281;45.772;12.852;2022-07-01T10:57:21;13.43;;;5.03;;
8488;SDS011;4281;45.772;12.852;2022-07-01T11:03:15;11.53;;;5.70;;
8488;SDS011;4281;45.772;12.852;2022-07-01T11:05:47;15.50;;;6.07;;
8488;SDS011;4281;45.772;12.852;2022-07-01T11:08:17;18.13;;;5.50;;
8488;SDS011;4281;45.772;12.852;2022-07-01T11:10:50;15.70;;;5.30;;
8488;SDS011;4281;45.772;12.852;2022-07-01T11:13:21;10.70;;;4.70;;
8488;SDS011;4281;45.772;12.852;2022-07-01T11:15:51;12.50;;;5.33;;
8488;SDS011;4281;45.772;12.852;2022-07-01T11:18:20;11.27;;;4.97;;
8488;SDS011;4281;45.772;12.852;2022-07-01T11:20:49;12.43;;;5.37;;
8488;SDS011;4281;45.772;12.852;2022-07-01T11:23:20;14.33;;;5.07;;
8488;SDS011;4281;45.772;12.852;2022-07-01T11:25:49;10.53;;;5.07;;
8488;SDS011;4281;45.772;12.852;2022-07-01T11:28:17;11.50;;;5.43;;
8488;SDS011;4281;45.772;12.852;2022-07-01T11:30:46;14.93;;;5.70;;
8488;SDS011;4281;45.772;12.852;2022-07-01T11:33:16;16.70;;;6.70;;
8488;SDS011;4281;45.772;12.852;2022-07-01T11:35:44;15.67;;;6.70;;
8488;SDS011;4281;45.772;12.852;2022-07-01T11:38:30;17.17;;;7.27;;
8488;SDS011;4281;45.772;12.852;2022-07-01T11:41:20;20.90;;;8.33;;
8488;SDS011;4281;45.772;12.852;2022-07-01T11:43:51;19.50;;;7.67;;
8488;SDS011;4281;45.772;12.852;2022-07-01T11:46:20;19.90;;;8.27;;
8488;SDS011;4281;45.772;12.852;2022-07-01T11:48:52;18.97;;;7.10;;
8488;SDS011;4281;45.772;12.852;2022-07-01T11:51:22;21.27;;;7.80;;
8488;SDS011;4281;45.772;12.852;2022-07-01T11:53:53;15.27;;;6.80;;
8488;SDS011;4281;45.772;12.852;2022-07-01T11:56:32;17.37;;;7.00;;
8488;SDS011;4281;45.772;12.852;2022-07-01T11:59:02;18.83;;;6.93;;
8488;SDS011;4281;45.772;12.852;2022-07-01T12:01:31;16.73;;;7.23;;
8488;SDS011;4281;45.772;12.852;2022-07-01T12:04:03;15.13;;;6.47;;
8488;SDS011;4281;45.772;12.852;2022-07-01T12:06:34;19.83;;;6.43;;
8488;SDS011;4281;45.772;12.852;2022-07-01T12:09:04;14.50;;;5.77;;
8488;SDS011;4281;45.772;12.852;2022-07-01T12:11:33;14.03;;;5.70;;
8488;SDS011;4281;45.772;12.852;2022-07-01T12:14:04;16.40;;;6.27;;
8488;SDS011;4281;45.772;12.852;2022-07-01T12:16:37;19.23;;;6.33;;
8488;SDS011;4281;45.772;12.852;2022-07-01T12:19:08;16.13;;;6.30;;
8488;SDS011;4281;45.772;12.852;2022-07-01T12:21:49;17.57;;;6.50;;
8488;SDS011;4281;45.772;12.852;2022-07-01T12:24:19;17.13;;;6.37;;
8488;SDS011;4281;45.772;12.852;2022-07-01T12:26:50;15.07;;;6.10;;
8488;SDS011;4281;45.772;12.852;2022-07-01T12:29:20;14.57;;;6.13;;
8488;SDS011;4281;45.772;12.852;2022-07-01T12:31:56;14.73;;;6.40;;
8488;SDS011;4281;45.772;12.852;2022-07-01T12:34:39;22.03;;;7.07;;
8488;SDS011;4281;45.772;12.852;2022-07-01T12:37:09;14.07;;;6.37;;
8488;SDS011;4281;45.772;12.852;2022-07-01T12:39:44;11.87;;;5.60;;
8488;SDS011;4281;45.772;12.852;2022-07-01T12:42:20;13.97;;;5.27;;
8488;SDS011;4281;45.772;12.852;2022-07-01T12:44:55;12.30;;;5.00;;
8488;SDS011;4281;45.772;12.852;2022-07-01T12:47:25;10.43;;;5.10;;
8488;SDS011;4281;45.772;12.852;2022-07-01T12:52:55;11.90;;;5.13;;
8488;SDS011;4281;45.772;12.852;2022-07-01T12:55:25;11.30;;;4.77;;
8488;SDS011;4281;45.772;12.852;2022-07-01T12:57:54;10.83;;;4.77;;
8488;SDS011;4281;45.772;12.852;2022-07-01T13:00:25;13.13;;;5.87;;
8488;SDS011;4281;45.772;12.852;2022-07-01T13:02:54;14.93;;;6.60;;
8488;SDS011;4281;45.772;12.852;2022-07-01T13:05:26;17.37;;;7.20;;
8488;SDS011;4281;45.772;12.852;2022-07-01T13:07:55;13.17;;;5.73;;
8488;SDS011;4281;45.772;12.852;2022-07-01T13:10:23;16.37;;;6.27;;
8488;SDS011;4281;45.772;12.852;2022-07-01T13:13:14;11.93;;;5.30;;
8488;SDS011;4281;45.772;12.852;2022-07-01T13:15:43;14.97;;;6.40;;
8488;SDS011;4281;45.772;12.852;2022-07-01T13:18:12;14.07;;;5.77;;
8488;SDS011;4281;45.772;12.852;2022-07-01T13:20:43;12.57;;;6.10;;
8488;SDS011;4281;45.772;12.852;2022-07-01T13:23:13;14.33;;;6.77;;
8488;SDS011;4281;45.772;12.852;2022-07-01T13:25:42;17.37;;;5.63;;
8488;SDS011;4281;45.772;12.852;2022-07-01T13:28:11;18.77;;;6.70;;
8488;SDS011;4281;45.772;12.852;2022-07-01T13:30:39;14.00;;;6.17;;
8488;SDS011;4281;45.772;12.852;2022-07-01T13:33:08;17.70;;;5.73;;
8488;SDS011;4281;45.772;12.852;2022-07-01T13:35:36;16.13;;;6.17;;
8488;SDS011;4281;45.772;12.852;2022-07-01T13:38:06;17.60;;;6.33;;
8488;SDS011;4281;45.772;12.852;2022-07-01T13:40:35;14.13;;;5.47;;
8488;SDS011;4281;45.772;12.852;2022-07-01T13:43:07;13.60;;;5.30;;
8488;SDS011;4281;45.772;12.852;2022-07-01T13:45:35;11.57;;;4.80;;
8488;SDS011;4281;45.772;12.852;2022-07-01T13:48:04;12.00;;;4.63;;
8488;SDS011;4281;45.772;12.852;2022-07-01T13:50:33;11.27;;;4.53;;
8488;SDS011;4281;45.772;12.852;2022-07-01T13:53:01;8.50;;;4.53;;
8488;SDS011;4281;45.772;12.852;2022-07-01T13:55:31;10.30;;;4.00;;
8488;SDS011;4281;45.772;12.852;2022-07-01T13:57:59;11.13;;;4.10;;
8488;SDS011;4281;45.772;12.852;2022-07-01T14:00:28;12.10;;;4.50;;
8488;SDS011;4281;45.772;12.852;2022-07-01T14:02:56;10.23;;;4.27;;
8488;SDS011;4281;45.772;12.852;2022-07-01T14:05:24;5.93;;;3.37;;
8488;SDS011;4281;45.772;12.852;2022-07-01T14:07:53;9.53;;;4.20;;
8488;SDS011;4281;45.772;12.852;2022-07-01T14:10:21;11.53;;;5.37;;
8488;SDS011;4281;45.772;12.852;2022-07-01T14:12:51;12.10;;;5.40;;
8488;SDS011;4281;45.772;12.852;2022-07-01T14:15:20;10.33;;;4.60;;
8488;SDS011;4281;45.772;12.852;2022-07-01T14:17:48;11.83;;;5.07;;
8488;SDS011;4281;45.772;12.852;2022-07-01T14:20:17;13.77;;;4.80;;
8488;SDS011;4281;45.772;12.852;2022-07-01T14:22:45;11.80;;;4.63;;
8488;SDS011;4281;45.772;12.852;2022-07-01T14:25:14;14.27;;;4.53;;
8488;SDS011;4281;45.772;12.852;2022-07-01T14:27:42;14.47;;;4.73;;
8488;SDS011;4281;45.772;12.852;2022-07-01T14:30:13;13.30;;;4.97;;
8488;SDS011;4281;45.772;12.852;2022-07-01T14:32:42;10.60;;;4.70;;
8488;SDS011;4281;45.772;12.852;2022-07-01T14:35:10;9.83;;;4.43;;
8488;SDS011;4281;45.772;12.852;2022-07-01T14:37:39;11.53;;;4.77;;
8488;SDS011;4281;45.772;12.852;2022-07-01T14:40:10;10.60;;;4.40;;
8488;SDS011;4281;45.772;12.852;2022-07-01T14:42:39;9.70;;;3.73;;
8488;SDS011;4281;45.772;12.852;2022-07-01T14:45:08;15.03;;;4.23;;
8488;SDS011;4281;45.772;12.852;2022-07-01T14:47:40;10.63;;;4.20;;
8488;SDS011;4281;45.772;12.852;2022-07-01T14:50:09;9.10;;;3.87;;
8488;SDS011;4281;45.772;12.852;2022-07-01T14:52:38;9.90;;;4.00;;
8488;SDS011;4281;45.772;12.852;2022-07-01T14:55:07;22.97;;;6.40;;
8488;SDS011;4281;45.772;12.852;2022-07-01T14:57:36;10.73;;;4.30;;
8488;SDS011;4281;45.772;12.852;2022-07-01T15:00:05;14.43;;;4.83;;
8488;SDS011;4281;45.772;12.852;2022-07-01T15:02:35;16.40;;;5.30;;
8488;SDS011;4281;45.772;12.852;2022-07-01T15:05:06;13.97;;;4.40;;
8488;SDS011;4281;45.772;12.852;2022-07-01T15:07:35;12.80;;;4.50;;
8488;SDS011;4281;45.772;12.852;2022-07-01T15:10:04;14.37;;;5.00;;
8488;SDS011;4281;45.772;12.852;2022-07-01T15:12:34;13.87;;;4.60;;
8488;SDS011;4281;45.772;12.852;2022-07-01T15:15:03;14.63;;;4.70;;
8488;SDS011;4281;45.772;12.852;2022-07-01T15:17:32;12.60;;;4.50;;
8488;SDS011;4281;45.772;12.852;2022-07-01T15:20:01;13.77;;;5.07;;
8488;SDS011;4281;45.772;12.852;2022-07-01T15:22:31;13.07;;;5.20;;
8488;SDS011;4281;45.772;12.852;2022-07-01T15:24:59;10.87;;;4.60;;
8488;SDS011;4281;45.772;12.852;2022-07-01T15:27:28;12.63;;;5.33;;